sensor_id;sensor_type;location;lat;lon;timestamp;P1;durP1;ratioP1;P2;durP2;ratioP2
20593;SDS011;10455;48.732;10.266;2022-11-28T00:04:50;312.47;;;48.73;;
20593;SDS011;10455;48.732;10.266;2022-11-28T00:09:53;306.50;;;53.27;;
20593;SDS011;10455;48.732;10.266;2022-11-28T00:14:55;241.07;;;44.80;;
20593;SDS011;10455;48.732;10.266;2022-11-28T00:19:59;276.13;;;48.67;;
20593;SDS011;10455;48.732;10.266;2022-11-28T00:25:01;165.80;;;42.03;;
20593;SDS011;10455;48.732;10.266;2022-11-28T00:30:03;216.47;;;42.37;;
20593;SDS011;10455;48.732;10.266;2022-11-28T00:35:07;536.97;;;63.10;;
20593;SDS011;10455;48.732;10.266;2022-11-28T00:40:09;309.80;;;48.73;;
20593;SDS011;10455;48.732;10.266;2022-11-28T00:45:11;321.53;;;51.80;;
20593;SDS011;10455;48.732;10.266;2022-11-28T00:50:15;125.97;;;39.13;;
20593;SDS011;10455;48.732;10.266;2022-11-28T00:55:17;83.83;;;35.43;;
20593;SDS011;10455;48.732;10.266;2022-11-28T01:00:19;60.40;;;33.80;;
20593;SDS011;10455;48.732;10.266;2022-11-28T01:05:23;141.00;;;40.10;;
20593;SDS011;10455;48.732;10.266;2022-11-28T01:10:25;87.27;;;35.77;;
20593;SDS011;10455;48.732;10.266;2022-11-28T01:15:27;335.87;;;46.97;;
20593;SDS011;10455;48.732;10.266;2022-11-28T01:20:30;111.57;;;38.57;;
20593;SDS011;10455;48.732;10.266;2022-11-28T01:25:32;178.73;;;38.17;;
20593;SDS011;10455;48.732;10.266;2022-11-28T01:30:34;168.97;;;40.53;;
20593;SDS011;10455;48.732;10.266;2022-11-28T01:35:37;205.50;;;42.50;;
20593;SDS011;10455;48.732;10.266;2022-11-28T01:40:43;424.37;;;52.60;;
20593;SDS011;10455;48.732;10.266;2022-11-28T01:45:45;323.90;;;47.47;;
20593;SDS011;10455;48.732;10.266;2022-11-28T01:50:49;106.30;;;39.03;;
20593;SDS011;10455;48.732;10.266;2022-11-28T01:55:55;202.70;;;44.40;;
20593;SDS011;10455;48.732;10.266;2022-11-28T02:01:01;104.43;;;38.73;;
20593;SDS011;10455;48.732;10.266;2022-11-28T02:06:05;99.43;;;36.33;;
20593;SDS011;10455;48.732;10.266;2022-11-28T02:11:11;105.27;;;34.70;;
20593;SDS011;10455;48.732;10.266;2022-11-28T02:16:41;154.77;;;41.37;;
20593;SDS011;10455;48.732;10.266;2022-11-28T02:21:55;115.83;;;36.23;;
20593;SDS011;10455;48.732;10.266;2022-11-28T02:27:06;99.47;;;34.80;;
20593;SDS011;10455;48.732;10.266;2022-11-28T02:32:30;94.43;;;34.20;;
20593;SDS011;10455;48.732;10.266;2022-11-28T02:37:55;82.10;;;34.73;;
20593;SDS011;10455;48.732;10.266;2022-11-28T02:43:06;87.83;;;33.77;;
20593;SDS011;10455;48.732;10.266;2022-11-28T02:48:17;74.97;;;33.97;;
20593;SDS011;10455;48.732;10.266;2022-11-28T02:53:27;86.60;;;33.10;;
20593;SDS011;10455;48.732;10.266;2022-11-28T02:58:32;126.53;;;35.93;;
20593;SDS011;10455;48.732;10.266;2022-11-28T03:03:47;148.13;;;40.30;;
20593;SDS011;10455;48.732;10.266;2022-11-28T03:09:03;54.77;;;30.03;;
20593;SDS011;10455;48.732;10.266;2022-11-28T03:14:14;62.33;;;33.53;;
20593;SDS011;10455;48.732;10.266;2022-11-28T03:19:26;47.27;;;29.40;;
20593;SDS011;10455;48.732;10.266;2022-11-28T03:24:32;57.73;;;32.33;;
20593;SDS011;10455;48.732;10.266;2022-11-28T03:29:38;60.50;;;32.20;;
20593;SDS011;10455;48.732;10.266;2022-11-28T03:34:46;46.43;;;29.37;;
20593;SDS011;10455;48.732;10.266;2022-11-28T03:39:53;47.80;;;30.00;;
20593;SDS011;10455;48.732;10.266;2022-11-28T03:45:00;46.47;;;28.93;;
20593;SDS011;10455;48.732;10.266;2022-11-28T03:50:10;43.93;;;28.67;;
20593;SDS011;10455;48.732;10.266;2022-11-28T03:55:17;46.93;;;28.03;;
20593;SDS011;10455;48.732;10.266;2022-11-28T04:00:23;38.00;;;25.67;;
20593;SDS011;10455;48.732;10.266;2022-11-28T04:05:29;42.57;;;28.67;;
20593;SDS011;10455;48.732;10.266;2022-11-28T04:10:35;39.30;;;28.27;;
20593;SDS011;10455;48.732;10.266;2022-11-28T04:15:44;45.83;;;29.70;;
20593;SDS011;10455;48.732;10.266;2022-11-28T04:20:51;40.30;;;27.27;;
20593;SDS011;10455;48.732;10.266;2022-11-28T04:25:57;43.97;;;28.47;;
20593;SDS011;10455;48.732;10.266;2022-11-28T04:31:04;51.73;;;30.80;;
20593;SDS011;10455;48.732;10.266;2022-11-28T04:36:10;39.57;;;27.73;;
20593;SDS011;10455;48.732;10.266;2022-11-28T04:41:17;47.67;;;30.07;;
20593;SDS011;10455;48.732;10.266;2022-11-28T04:46:23;44.73;;;29.50;;
20593;SDS011;10455;48.732;10.266;2022-11-28T04:51:33;46.33;;;29.73;;
20593;SDS011;10455;48.732;10.266;2022-11-28T04:56:43;38.67;;;26.13;;
20593;SDS011;10455;48.732;10.266;2022-11-28T05:01:47;41.53;;;27.70;;
20593;SDS011;10455;48.732;10.266;2022-11-28T05:06:52;36.13;;;25.93;;
20593;SDS011;10455;48.732;10.266;2022-11-28T05:12:02;36.43;;;26.77;;
20593;SDS011;10455;48.732;10.266;2022-11-28T05:17:04;41.40;;;27.63;;
20593;SDS011;10455;48.732;10.266;2022-11-28T05:22:08;33.73;;;24.77;;
20593;SDS011;10455;48.732;10.266;2022-11-28T05:27:09;37.33;;;26.87;;
20593;SDS011;10455;48.732;10.266;2022-11-28T05:32:11;39.03;;;26.53;;
20593;SDS011;10455;48.732;10.266;2022-11-28T05:37:15;37.47;;;26.53;;
20593;SDS011;10455;48.732;10.266;2022-11-28T05:42:17;39.50;;;26.60;;
20593;SDS011;10455;48.732;10.266;2022-11-28T05:47:19;50.53;;;30.97;;
20593;SDS011;10455;48.732;10.266;2022-11-28T05:52:24;69.97;;;31.93;;
20593;SDS011;10455;48.732;10.266;2022-11-28T05:57:30;55.43;;;32.37;;
20593;SDS011;10455;48.732;10.266;2022-11-28T06:02:33;45.90;;;30.73;;
20593;SDS011;10455;48.732;10.266;2022-11-28T06:07:37;42.97;;;27.87;;
20593;SDS011;10455;48.732;10.266;2022-11-28T06:12:39;42.50;;;29.50;;
20593;SDS011;10455;48.732;10.266;2022-11-28T06:17:40;43.07;;;29.00;;
20593;SDS011;10455;48.732;10.266;2022-11-28T06:22:46;44.47;;;30.33;;
20593;SDS011;10455;48.732;10.266;2022-11-28T06:27:47;40.13;;;28.23;;
20593;SDS011;10455;48.732;10.266;2022-11-28T06:32:49;44.00;;;29.97;;
20593;SDS011;10455;48.732;10.266;2022-11-28T06:37:53;44.53;;;29.87;;
20593;SDS011;10455;48.732;10.266;2022-11-28T06:42:54;45.90;;;27.90;;
20593;SDS011;10455;48.732;10.266;2022-11-28T06:47:56;43.80;;;30.67;;
20593;SDS011;10455;48.732;10.266;2022-11-28T06:53:00;42.73;;;30.43;;
20593;SDS011;10455;48.732;10.266;2022-11-28T06:58:02;42.13;;;28.07;;
20593;SDS011;10455;48.732;10.266;2022-11-28T07:03:03;46.83;;;29.57;;
20593;SDS011;10455;48.732;10.266;2022-11-28T07:08:07;45.80;;;28.73;;
20593;SDS011;10455;48.732;10.266;2022-11-28T07:13:09;39.87;;;26.93;;
20593;SDS011;10455;48.732;10.266;2022-11-28T07:18:11;47.87;;;30.80;;
20593;SDS011;10455;48.732;10.266;2022-11-28T07:23:14;41.27;;;28.53;;
20593;SDS011;10455;48.732;10.266;2022-11-28T07:28:16;51.53;;;34.00;;
20593;SDS011;10455;48.732;10.266;2022-11-28T07:33:18;39.73;;;28.33;;
20593;SDS011;10455;48.732;10.266;2022-11-28T07:38:21;41.37;;;28.67;;
20593;SDS011;10455;48.732;10.266;2022-11-28T07:43:23;35.83;;;26.10;;
20593;SDS011;10455;48.732;10.266;2022-11-28T07:48:25;32.13;;;25.13;;
20593;SDS011;10455;48.732;10.266;2022-11-28T07:53:28;36.77;;;26.80;;
20593;SDS011;10455;48.732;10.266;2022-11-28T07:58:30;34.67;;;26.67;;
20593;SDS011;10455;48.732;10.266;2022-11-28T08:03:32;29.97;;;24.73;;
20593;SDS011;10455;48.732;10.266;2022-11-28T08:08:35;30.13;;;24.30;;
20593;SDS011;10455;48.732;10.266;2022-11-28T08:13:38;25.00;;;21.57;;
20593;SDS011;10455;48.732;10.266;2022-11-28T08:18:40;22.67;;;19.27;;
20593;SDS011;10455;48.732;10.266;2022-11-28T08:23:43;28.40;;;21.87;;
20593;SDS011;10455;48.732;10.266;2022-11-28T08:28:46;29.23;;;22.83;;
20593;SDS011;10455;48.732;10.266;2022-11-28T08:33:48;28.47;;;21.67;;
20593;SDS011;10455;48.732;10.266;2022-11-28T08:38:53;27.13;;;19.63;;
20593;SDS011;10455;48.732;10.266;2022-11-28T08:43:55;27.13;;;21.03;;
20593;SDS011;10455;48.732;10.266;2022-11-28T08:48:57;22.47;;;19.27;;
20593;SDS011;10455;48.732;10.266;2022-11-28T08:54:01;23.43;;;19.33;;
20593;SDS011;10455;48.732;10.266;2022-11-28T08:59:03;24.17;;;19.93;;
20593;SDS011;10455;48.732;10.266;2022-11-28T09:04:06;26.50;;;20.07;;
20593;SDS011;10455;48.732;10.266;2022-11-28T09:09:09;23.20;;;20.03;;
20593;SDS011;10455;48.732;10.266;2022-11-28T09:14:11;29.43;;;20.50;;
20593;SDS011;10455;48.732;10.266;2022-11-28T09:19:13;23.27;;;20.03;;
20593;SDS011;10455;48.732;10.266;2022-11-28T09:24:16;24.70;;;20.23;;
20593;SDS011;10455;48.732;10.266;2022-11-28T09:29:18;25.07;;;21.43;;
20593;SDS011;10455;48.732;10.266;2022-11-28T09:34:20;25.70;;;20.30;;
20593;SDS011;10455;48.732;10.266;2022-11-28T09:39:23;28.47;;;22.37;;
20593;SDS011;10455;48.732;10.266;2022-11-28T09:44:25;27.03;;;21.93;;
20593;SDS011;10455;48.732;10.266;2022-11-28T09:49:35;29.07;;;22.97;;
20593;SDS011;10455;48.732;10.266;2022-11-28T09:54:46;30.63;;;23.77;;
20593;SDS011;10455;48.732;10.266;2022-11-28T09:59:51;29.30;;;23.07;;
20593;SDS011;10455;48.732;10.266;2022-11-28T10:05:05;28.07;;;22.90;;
20593;SDS011;10455;48.732;10.266;2022-11-28T10:10:18;30.20;;;23.50;;
20593;SDS011;10455;48.732;10.266;2022-11-28T10:15:29;30.17;;;24.33;;
20593;SDS011;10455;48.732;10.266;2022-11-28T10:20:40;30.47;;;23.07;;
20593;SDS011;10455;48.732;10.266;2022-11-28T10:25:48;28.63;;;22.80;;
20593;SDS011;10455;48.732;10.266;2022-11-28T10:31:04;28.87;;;23.67;;
20593;SDS011;10455;48.732;10.266;2022-11-28T10:36:12;30.10;;;23.50;;
20593;SDS011;10455;48.732;10.266;2022-11-28T10:41:23;25.97;;;21.33;;
20593;SDS011;10455;48.732;10.266;2022-11-28T10:46:36;25.67;;;21.03;;
20593;SDS011;10455;48.732;10.266;2022-11-28T10:51:47;23.67;;;20.30;;
20593;SDS011;10455;48.732;10.266;2022-11-28T10:57:02;24.27;;;19.83;;
20593;SDS011;10455;48.732;10.266;2022-11-28T11:02:17;26.40;;;20.07;;
20593;SDS011;10455;48.732;10.266;2022-11-28T11:07:23;21.17;;;18.57;;
20593;SDS011;10455;48.732;10.266;2022-11-28T11:12:30;21.67;;;19.20;;
20593;SDS011;10455;48.732;10.266;2022-11-28T11:17:34;20.00;;;17.87;;
20593;SDS011;10455;48.732;10.266;2022-11-28T11:22:37;20.90;;;18.60;;
20593;SDS011;10455;48.732;10.266;2022-11-28T11:27:45;21.77;;;18.80;;
20593;SDS011;10455;48.732;10.266;2022-11-28T11:32:49;21.27;;;19.00;;
20593;SDS011;10455;48.732;10.266;2022-11-28T11:37:59;21.40;;;19.10;;
20593;SDS011;10455;48.732;10.266;2022-11-28T11:43:26;22.50;;;19.97;;
20593;SDS011;10455;48.732;10.266;2022-11-28T11:48:33;25.50;;;21.10;;
20593;SDS011;10455;48.732;10.266;2022-11-28T11:53:36;26.07;;;21.93;;
20593;SDS011;10455;48.732;10.266;2022-11-28T11:58:40;29.03;;;23.10;;
20593;SDS011;10455;48.732;10.266;2022-11-28T12:03:47;33.00;;;24.43;;
20593;SDS011;10455;48.732;10.266;2022-11-28T12:08:59;36.60;;;25.03;;
20593;SDS011;10455;48.732;10.266;2022-11-28T12:14:16;35.37;;;26.47;;
20593;SDS011;10455;48.732;10.266;2022-11-28T12:19:27;32.73;;;26.07;;
20593;SDS011;10455;48.732;10.266;2022-11-28T12:24:40;37.33;;;28.63;;
20593;SDS011;10455;48.732;10.266;2022-11-28T12:29:58;33.00;;;26.07;;
20593;SDS011;10455;48.732;10.266;2022-11-28T12:35:21;31.67;;;25.27;;
20593;SDS011;10455;48.732;10.266;2022-11-28T12:40:34;33.07;;;25.40;;
20593;SDS011;10455;48.732;10.266;2022-11-28T12:45:45;33.67;;;25.37;;
20593;SDS011;10455;48.732;10.266;2022-11-28T12:50:51;35.27;;;26.03;;
20593;SDS011;10455;48.732;10.266;2022-11-28T12:56:03;34.77;;;26.03;;
20593;SDS011;10455;48.732;10.266;2022-11-28T13:01:14;32.27;;;25.27;;
20593;SDS011;10455;48.732;10.266;2022-11-28T13:06:27;33.57;;;26.87;;
20593;SDS011;10455;48.732;10.266;2022-11-28T13:11:42;31.50;;;26.43;;
20593;SDS011;10455;48.732;10.266;2022-11-28T13:16:54;30.53;;;25.40;;
20593;SDS011;10455;48.732;10.266;2022-11-28T13:22:00;30.63;;;26.67;;
20593;SDS011;10455;48.732;10.266;2022-11-28T13:27:10;32.63;;;24.77;;
20593;SDS011;10455;48.732;10.266;2022-11-28T13:32:23;30.23;;;23.10;;
20593;SDS011;10455;48.732;10.266;2022-11-28T13:37:32;26.63;;;23.77;;
20593;SDS011;10455;48.732;10.266;2022-11-28T13:42:40;45.67;;;36.60;;
20593;SDS011;10455;48.732;10.266;2022-11-28T13:47:49;30.63;;;26.17;;
20593;SDS011;10455;48.732;10.266;2022-11-28T13:52:56;37.30;;;27.93;;
20593;SDS011;10455;48.732;10.266;2022-11-28T13:58:07;38.27;;;29.80;;
20593;SDS011;10455;48.732;10.266;2022-11-28T14:03:23;37.63;;;29.10;;
20593;SDS011;10455;48.732;10.266;2022-11-28T14:08:26;32.67;;;26.10;;
20593;SDS011;10455;48.732;10.266;2022-11-28T14:13:47;32.93;;;26.73;;
20593;SDS011;10455;48.732;10.266;2022-11-28T14:24:43;37.43;;;29.10;;
20593;SDS011;10455;48.732;10.266;2022-11-28T14:29:52;33.63;;;27.93;;
20593;SDS011;10455;48.732;10.266;2022-11-28T14:34:58;39.27;;;31.10;;
20593;SDS011;10455;48.732;10.266;2022-11-28T14:40:01;41.30;;;31.60;;
20593;SDS011;10455;48.732;10.266;2022-11-28T14:50:47;37.33;;;30.13;;
20593;SDS011;10455;48.732;10.266;2022-11-28T14:55:50;42.03;;;31.73;;
20593;SDS011;10455;48.732;10.266;2022-11-28T15:00:53;40.20;;;31.07;;
20593;SDS011;10455;48.732;10.266;2022-11-28T15:05:58;41.50;;;30.63;;
20593;SDS011;10455;48.732;10.266;2022-11-28T15:16:33;49.10;;;34.80;;
20593;SDS011;10455;48.732;10.266;2022-11-28T15:21:43;42.87;;;34.17;;
20593;SDS011;10455;48.732;10.266;2022-11-28T15:26:46;45.93;;;33.40;;
20593;SDS011;10455;48.732;10.266;2022-11-28T15:31:48;46.73;;;34.80;;
20593;SDS011;10455;48.732;10.266;2022-11-28T15:36:55;53.93;;;38.70;;
20593;SDS011;10455;48.732;10.266;2022-11-28T15:41:59;46.90;;;35.07;;
20593;SDS011;10455;48.732;10.266;2022-11-28T15:47:03;47.33;;;34.80;;
20593;SDS011;10455;48.732;10.266;2022-11-28T15:52:17;49.77;;;36.50;;
20593;SDS011;10455;48.732;10.266;2022-11-28T15:57:20;49.27;;;35.70;;
20593;SDS011;10455;48.732;10.266;2022-11-28T16:02:24;51.00;;;37.47;;
20593;SDS011;10455;48.732;10.266;2022-11-28T16:07:31;61.60;;;41.57;;
20593;SDS011;10455;48.732;10.266;2022-11-28T16:12:34;57.17;;;39.83;;
20593;SDS011;10455;48.732;10.266;2022-11-28T16:17:37;57.03;;;40.63;;
20593;SDS011;10455;48.732;10.266;2022-11-28T16:22:41;72.23;;;49.20;;
20593;SDS011;10455;48.732;10.266;2022-11-28T16:27:43;69.57;;;48.80;;
20593;SDS011;10455;48.732;10.266;2022-11-28T16:32:48;77.37;;;50.60;;
20593;SDS011;10455;48.732;10.266;2022-11-28T16:37:52;68.67;;;45.23;;
20593;SDS011;10455;48.732;10.266;2022-11-28T16:43:03;80.63;;;48.73;;
20593;SDS011;10455;48.732;10.266;2022-11-28T16:48:07;67.37;;;45.40;;
20593;SDS011;10455;48.732;10.266;2022-11-28T16:53:17;84.07;;;50.97;;
20593;SDS011;10455;48.732;10.266;2022-11-28T16:58:42;80.30;;;51.83;;
20593;SDS011;10455;48.732;10.266;2022-11-28T17:03:45;51.67;;;40.30;;
20593;SDS011;10455;48.732;10.266;2022-11-28T17:08:53;54.90;;;41.30;;
20593;SDS011;10455;48.732;10.266;2022-11-28T17:13:55;52.13;;;40.00;;
20593;SDS011;10455;48.732;10.266;2022-11-28T17:18:57;70.70;;;45.30;;
20593;SDS011;10455;48.732;10.266;2022-11-28T17:24:01;68.47;;;46.03;;
20593;SDS011;10455;48.732;10.266;2022-11-28T17:29:03;59.50;;;43.00;;
20593;SDS011;10455;48.732;10.266;2022-11-28T17:34:05;73.47;;;48.23;;
20593;SDS011;10455;48.732;10.266;2022-11-28T17:39:11;74.23;;;47.40;;
20593;SDS011;10455;48.732;10.266;2022-11-28T17:44:15;76.47;;;48.73;;
20593;SDS011;10455;48.732;10.266;2022-11-28T17:49:18;87.90;;;52.07;;
20593;SDS011;10455;48.732;10.266;2022-11-28T17:54:23;80.97;;;48.77;;
20593;SDS011;10455;48.732;10.266;2022-11-28T17:59:25;81.63;;;50.33;;
20593;SDS011;10455;48.732;10.266;2022-11-28T18:04:28;63.00;;;42.27;;
20593;SDS011;10455;48.732;10.266;2022-11-28T18:09:31;60.80;;;42.67;;
20593;SDS011;10455;48.732;10.266;2022-11-28T18:14:33;61.37;;;42.20;;
20593;SDS011;10455;48.732;10.266;2022-11-28T18:19:35;66.43;;;46.23;;
20593;SDS011;10455;48.732;10.266;2022-11-28T18:24:38;63.80;;;42.60;;
20593;SDS011;10455;48.732;10.266;2022-11-28T18:29:40;67.00;;;44.50;;
20593;SDS011;10455;48.732;10.266;2022-11-28T18:34:42;71.37;;;47.57;;
20593;SDS011;10455;48.732;10.266;2022-11-28T18:39:46;68.77;;;46.53;;
20593;SDS011;10455;48.732;10.266;2022-11-28T18:44:48;66.27;;;46.20;;
20593;SDS011;10455;48.732;10.266;2022-11-28T18:49:50;72.57;;;49.03;;
20593;SDS011;10455;48.732;10.266;2022-11-28T18:54:53;74.73;;;48.57;;
20593;SDS011;10455;48.732;10.266;2022-11-28T18:59:55;71.37;;;48.73;;
20593;SDS011;10455;48.732;10.266;2022-11-28T19:04:58;66.03;;;45.87;;
20593;SDS011;10455;48.732;10.266;2022-11-28T19:10:01;79.33;;;53.13;;
20593;SDS011;10455;48.732;10.266;2022-11-28T19:15:04;69.87;;;50.00;;
20593;SDS011;10455;48.732;10.266;2022-11-28T19:20:07;61.47;;;47.07;;
20593;SDS011;10455;48.732;10.266;2022-11-28T19:25:11;85.17;;;53.73;;
20593;SDS011;10455;48.732;10.266;2022-11-28T19:30:13;79.40;;;52.40;;
20593;SDS011;10455;48.732;10.266;2022-11-28T19:35:15;83.07;;;54.50;;
20593;SDS011;10455;48.732;10.266;2022-11-28T19:40:19;85.37;;;52.43;;
20593;SDS011;10455;48.732;10.266;2022-11-28T19:45:20;124.20;;;67.30;;
20593;SDS011;10455;48.732;10.266;2022-11-28T19:50:23;92.43;;;53.23;;
20593;SDS011;10455;48.732;10.266;2022-11-28T19:55:26;68.57;;;46.13;;
20593;SDS011;10455;48.732;10.266;2022-11-28T20:00:28;70.53;;;47.53;;
20593;SDS011;10455;48.732;10.266;2022-11-28T20:05:30;89.07;;;56.03;;
20593;SDS011;10455;48.732;10.266;2022-11-28T20:10:34;82.40;;;53.37;;
20593;SDS011;10455;48.732;10.266;2022-11-28T20:15:36;64.57;;;47.47;;
20593;SDS011;10455;48.732;10.266;2022-11-28T20:20:38;75.40;;;52.17;;
20593;SDS011;10455;48.732;10.266;2022-11-28T20:25:42;76.37;;;51.80;;
20593;SDS011;10455;48.732;10.266;2022-11-28T20:30:43;134.07;;;85.87;;
20593;SDS011;10455;48.732;10.266;2022-11-28T20:35:45;79.70;;;52.63;;
20593;SDS011;10455;48.732;10.266;2022-11-28T20:40:49;58.97;;;44.40;;
20593;SDS011;10455;48.732;10.266;2022-11-28T20:45:50;72.40;;;47.30;;
20593;SDS011;10455;48.732;10.266;2022-11-28T20:50:52;69.57;;;47.30;;
20593;SDS011;10455;48.732;10.266;2022-11-28T20:55:59;77.83;;;50.87;;
20593;SDS011;10455;48.732;10.266;2022-11-28T21:01:01;89.47;;;54.07;;
20593;SDS011;10455;48.732;10.266;2022-11-28T21:06:04;87.00;;;53.07;;
20593;SDS011;10455;48.732;10.266;2022-11-28T21:11:10;83.50;;;53.57;;
20593;SDS011;10455;48.732;10.266;2022-11-28T21:16:13;84.73;;;51.43;;
20593;SDS011;10455;48.732;10.266;2022-11-28T21:21:18;84.63;;;52.27;;
20593;SDS011;10455;48.732;10.266;2022-11-28T21:26:23;63.57;;;44.23;;
20593;SDS011;10455;48.732;10.266;2022-11-28T21:31:26;62.40;;;42.77;;
20593;SDS011;10455;48.732;10.266;2022-11-28T21:36:29;76.03;;;45.93;;
20593;SDS011;10455;48.732;10.266;2022-11-28T21:41:32;81.47;;;49.13;;
20593;SDS011;10455;48.732;10.266;2022-11-28T21:46:34;60.97;;;44.07;;
20593;SDS011;10455;48.732;10.266;2022-11-28T21:51:36;61.50;;;41.80;;
20593;SDS011;10455;48.732;10.266;2022-11-28T21:56:39;60.93;;;44.90;;
20593;SDS011;10455;48.732;10.266;2022-11-28T22:01:41;70.30;;;47.03;;
20593;SDS011;10455;48.732;10.266;2022-11-28T22:06:43;51.87;;;39.90;;
20593;SDS011;10455;48.732;10.266;2022-11-28T22:11:47;66.03;;;44.83;;
20593;SDS011;10455;48.732;10.266;2022-11-28T22:16:48;81.80;;;51.87;;
20593;SDS011;10455;48.732;10.266;2022-11-28T22:21:50;74.20;;;46.57;;
20593;SDS011;10455;48.732;10.266;2022-11-28T22:26:53;58.03;;;43.03;;
20593;SDS011;10455;48.732;10.266;2022-11-28T22:31:55;66.13;;;47.70;;
20593;SDS011;10455;48.732;10.266;2022-11-28T22:36:57;99.97;;;60.80;;
20593;SDS011;10455;48.732;10.266;2022-11-28T22:42:01;61.37;;;45.00;;
20593;SDS011;10455;48.732;10.266;2022-11-28T22:47:03;66.80;;;44.33;;
20593;SDS011;10455;48.732;10.266;2022-11-28T22:52:05;56.67;;;41.27;;
20593;SDS011;10455;48.732;10.266;2022-11-28T22:57:08;58.37;;;41.50;;
20593;SDS011;10455;48.732;10.266;2022-11-28T23:02:10;79.73;;;54.90;;
20593;SDS011;10455;48.732;10.266;2022-11-28T23:07:12;89.33;;;53.40;;
20593;SDS011;10455;48.732;10.266;2022-11-28T23:12:16;60.10;;;47.13;;
20593;SDS011;10455;48.732;10.266;2022-11-28T23:17:18;75.77;;;53.57;;
20593;SDS011;10455;48.732;10.266;2022-11-28T23:22:19;64.10;;;47.23;;
20593;SDS011;10455;48.732;10.266;2022-11-28T23:27:23;81.70;;;53.67;;
20593;SDS011;10455;48.732;10.266;2022-11-28T23:32:24;75.10;;;50.00;;
20593;SDS011;10455;48.732;10.266;2022-11-28T23:37:27;100.87;;;56.67;;
20593;SDS011;10455;48.732;10.266;2022-11-28T23:42:31;57.20;;;42.13;;
20593;SDS011;10455;48.732;10.266;2022-11-28T23:47:33;66.67;;;46.80;;
20593;SDS011;10455;48.732;10.266;2022-11-28T23:52:35;61.17;;;42.63;;
20593;SDS011;10455;48.732;10.266;2022-11-28T23:57:38;62.60;;;41.70;;
